Time;durP1;ratioP1;P1;durP2;ratioP2;P2;SDS_P1;SDS_P2;PMS_P1;PMS_P2;Temp;Humidity;BMP_temperature;BMP_pressure;BME280_temperature;BME280_humidity;BME280_pressure;Samples;Min_cycle;Max_cycle;Signal;HPM_P1;HPM_P2
2022/07/06 00:02:14;;;;;;;3.30;2.20;;;18.40;55.40;;;;;;5005796;28;20452;-68
2022/07/06 00:04:41;;;;;;;2.63;1.97;;;18.40;55.20;;;;;;5005106;28;20492;-68
2022/07/06 00:07:09;;;;;;;2.87;2.20;;;18.40;55.20;;;;;;5002633;28;20475;-68
2022/07/06 00:09:36;;;;;;;3.50;2.10;;;18.40;55.20;;;;;;4999603;28;20466;-68
2022/07/06 00:12:03;;;;;;;1.77;1.67;;;18.50;55.30;;;;;;5000798;28;20455;-68
2022/07/06 00:14:29;;;;;;;3.10;1.90;;;18.50;55.10;;;;;;5004933;28;20479;-68
2022/07/06 00:16:56;;;;;;;2.07;1.93;;;18.50;55.10;;;;;;5005131;28;20458;-68
2022/07/06 00:19:23;;;;;;;2.30;1.70;;;18.50;55.10;;;;;;5005893;28;20457;-68
2022/07/06 00:21:50;;;;;;;3.60;2.30;;;18.50;55.10;;;;;;5006940;28;20453;-68
2022/07/06 00:24:18;;;;;;;8.97;2.43;;;18.50;55.00;;;;;;5006809;28;20471;-68
2022/07/06 00:26:45;;;;;;;4.10;2.40;;;18.30;54.90;;;;;;5007157;28;20970;-68
2022/07/06 00:29:12;;;;;;;4.00;2.60;;;18.20;55.70;;;;;;5005930;28;20822;-68
2022/07/06 00:31:39;;;;;;;4.10;2.37;;;18.00;55.80;;;;;;5007744;28;20463;-68
2022/07/06 00:34:06;;;;;;;2.43;2.27;;;18.00;56.10;;;;;;5010110;28;20992;-68
2022/07/06 00:36:33;;;;;;;7.17;3.67;;;17.90;56.00;;;;;;5010251;28;20440;-68
2022/07/06 00:38:59;;;;;;;2.70;2.50;;;17.60;56.20;;;;;;5009476;28;20500;-68
2022/07/06 00:41:27;;;;;;;3.60;2.40;;;17.50;57.10;;;;;;5009672;28;20459;-68
2022/07/06 00:43:56;;;;;;;2.53;2.13;;;17.40;57.30;;;;;;5009241;28;20506;-67
2022/07/06 00:46:28;;;;;;;4.00;2.10;;;17.30;57.50;;;;;;5008899;28;20453;-68
2022/07/06 00:48:55;;;;;;;6.43;2.90;;;17.30;57.60;;;;;;5009142;28;20437;-68
2022/07/06 00:51:26;;;;;;;3.97;2.30;;;17.40;57.70;;;;;;5009548;28;20458;-68
2022/07/06 00:53:55;;;;;;;6.30;2.50;;;17.30;57.30;;;;;;5009222;28;20468;-68
2022/07/06 00:56:23;;;;;;;3.90;2.47;;;17.30;57.80;;;;;;5008623;28;20439;-68
2022/07/06 00:58:51;;;;;;;3.73;2.67;;;17.20;58.00;;;;;;5008344;28;20483;-68
2022/07/06 01:01:18;;;;;;;4.67;2.20;;;17.30;57.90;;;;;;5009441;28;20444;-68
2022/07/06 01:03:44;;;;;;;3.20;2.60;;;17.40;57.90;;;;;;5008835;28;20535;-68
2022/07/06 01:06:11;;;;;;;6.10;2.27;;;17.50;57.50;;;;;;5008904;28;20452;-68
2022/07/06 01:08:39;;;;;;;3.37;2.67;;;17.40;57.40;;;;;;5008907;28;20452;-68
2022/07/06 01:11:06;;;;;;;4.13;2.50;;;17.40;57.60;;;;;;5008913;28;20463;-68
2022/07/06 01:13:34;;;;;;;5.20;2.60;;;17.30;58.00;;;;;;5008712;28;20476;-68
2022/07/06 01:16:02;;;;;;;3.27;2.20;;;17.20;58.40;;;;;;5008422;28;20456;-68
2022/07/06 01:18:29;;;;;;;7.83;2.53;;;17.10;58.40;;;;;;5009046;28;20464;-68
2022/07/06 01:21:08;;;;;;;4.83;2.57;;;17.10;59.00;;;;;;5008201;28;20452;-68
2022/07/06 01:23:40;;;;;;;2.50;2.30;;;17.10;59.00;;;;;;5007506;28;20908;-68
2022/07/06 01:26:09;;;;;;;3.50;2.60;;;16.90;59.00;;;;;;5006812;28;20440;-68
2022/07/06 01:28:36;;;;;;;4.70;2.90;;;16.90;59.00;;;;;;5008570;28;20454;-68
2022/07/06 01:31:03;;;;;;;6.37;2.70;;;16.80;59.30;;;;;;5007901;28;20826;-68
2022/07/06 01:33:31;;;;;;;3.40;2.60;;;16.70;59.60;;;;;;5001658;28;20449;-68
2022/07/06 01:35:57;;;;;;;3.40;2.33;;;16.70;60.30;;;;;;5005486;28;20217;-68
2022/07/06 01:38:26;;;;;;;3.80;2.37;;;16.70;60.50;;;;;;5007170;28;20909;-68
2022/07/06 01:40:52;;;;;;;3.17;2.53;;;16.80;60.20;;;;;;5008834;28;20443;-68
2022/07/06 01:43:19;;;;;;;2.60;1.90;;;16.80;59.70;;;;;;5006362;28;20470;-68
2022/07/06 01:45:46;;;;;;;2.83;2.00;;;16.90;59.30;;;;;;5005585;28;20425;-68
2022/07/06 01:48:13;;;;;;;2.30;2.10;;;17.00;59.10;;;;;;5006120;28;20519;-69
2022/07/06 01:50:39;;;;;;;2.53;2.27;;;17.10;58.90;;;;;;5007143;28;20474;-69
2022/07/06 01:53:06;;;;;;;2.70;2.50;;;17.10;58.60;;;;;;5008193;28;20451;-68
2022/07/06 01:55:34;;;;;;;2.90;2.13;;;17.20;58.40;;;;;;5008254;28;20448;-68
2022/07/06 01:58:01;;;;;;;4.17;2.17;;;17.20;58.10;;;;;;5008628;28;20662;-68
2022/07/06 02:00:28;;;;;;;4.03;2.37;;;17.30;58.00;;;;;;5008329;28;20454;-69
2022/07/06 02:02:54;;;;;;;2.70;1.80;;;17.30;57.90;;;;;;5007689;28;20452;-69
2022/07/06 02:05:21;;;;;;;4.93;2.70;;;17.30;57.90;;;;;;5008269;28;20471;-69
2022/07/06 02:07:48;;;;;;;3.20;2.23;;;17.40;57.80;;;;;;5007872;28;20448;-69
2022/07/06 02:10:15;;;;;;;3.33;2.03;;;17.40;57.70;;;;;;5008646;28;20537;-69
2022/07/06 02:12:43;;;;;;;3.00;2.33;;;17.30;57.50;;;;;;5008199;28;20452;-68
2022/07/06 02:15:10;;;;;;;3.90;2.47;;;17.30;57.50;;;;;;5008332;28;20472;-68
2022/07/06 02:17:37;;;;;;;4.33;2.77;;;17.30;57.70;;;;;;5008325;28;20527;-69
2022/07/06 02:20:05;;;;;;;5.73;2.60;;;17.20;57.90;;;;;;5007886;28;20452;-69
2022/07/06 02:22:32;;;;;;;3.10;2.70;;;17.10;58.20;;;;;;5008183;28;20456;-69
2022/07/06 02:24:58;;;;;;;4.57;2.90;;;17.00;58.30;;;;;;5008076;28;20460;-68
2022/07/06 02:27:25;;;;;;;3.03;2.83;;;16.70;59.00;;;;;;5008141;28;20467;-69
2022/07/06 02:29:54;;;;;;;3.30;3.10;;;16.60;59.80;;;;;;5008069;28;20456;-69
2022/07/06 02:32:20;;;;;;;3.60;3.00;;;16.60;60.00;;;;;;5007517;28;20528;-68
2022/07/06 02:34:47;;;;;;;3.33;2.57;;;16.60;60.00;;;;;;5007325;28;20472;-68
2022/07/06 02:37:14;;;;;;;3.40;3.10;;;16.60;59.80;;;;;;5008159;28;20448;-68
2022/07/06 02:39:41;;;;;;;2.70;2.50;;;16.70;59.70;;;;;;5007496;28;20488;-68
2022/07/06 02:42:08;;;;;;;3.30;2.70;;;16.60;59.50;;;;;;5007394;28;20454;-68
2022/07/06 02:44:35;;;;;;;3.23;2.87;;;16.60;59.30;;;;;;5007210;28;20495;-68
2022/07/06 02:47:03;;;;;;;3.33;2.90;;;16.60;59.20;;;;;;5007067;28;20462;-68
2022/07/06 02:49:30;;;;;;;2.83;2.63;;;16.60;59.10;;;;;;5007058;28;20453;-69
2022/07/06 02:51:57;;;;;;;3.13;2.87;;;16.60;59.00;;;;;;5007389;28;20454;-69
2022/07/06 02:54:24;;;;;;;4.60;3.07;;;16.60;59.00;;;;;;5007023;28;20475;-69
2022/07/06 02:56:52;;;;;;;3.07;2.77;;;16.60;59.10;;;;;;5006502;28;20466;-68
2022/07/06 02:59:20;;;;;;;3.27;2.47;;;16.70;59.40;;;;;;5006708;28;20495;-68
2022/07/06 03:01:46;;;;;;;3.40;2.63;;;16.60;59.30;;;;;;5006882;28;20456;-68
2022/07/06 03:04:14;;;;;;;3.10;2.80;;;16.60;59.30;;;;;;5007395;28;20478;-68
2022/07/06 03:06:41;;;;;;;5.30;3.20;;;16.60;59.40;;;;;;5006723;28;20444;-68
2022/07/06 03:09:08;;;;;;;3.30;2.70;;;16.60;59.50;;;;;;5006438;28;20457;-68
2022/07/06 03:11:35;;;;;;;3.20;2.67;;;16.60;59.50;;;;;;5006565;28;20455;-68
2022/07/06 03:14:03;;;;;;;3.33;3.03;;;16.60;59.40;;;;;;5006821;28;20499;-68
2022/07/06 03:16:30;;;;;;;3.20;2.77;;;16.60;59.50;;;;;;5005617;28;20478;-68
2022/07/06 03:18:57;;;;;;;3.40;3.10;;;16.60;59.40;;;;;;5006494;28;20484;-68
2022/07/06 03:21:25;;;;;;;4.73;3.23;;;16.50;59.30;;;;;;5006185;28;20456;-68
2022/07/06 03:23:52;;;;;;;4.60;2.80;;;16.50;59.40;;;;;;5006629;28;20468;-68
2022/07/06 03:26:18;;;;;;;3.60;3.30;;;16.50;60.20;;;;;;5006722;28;20512;-68
2022/07/06 03:28:45;;;;;;;3.33;2.93;;;16.50;59.80;;;;;;5007109;28;20448;-68
2022/07/06 03:31:12;;;;;;;5.93;2.70;;;16.50;60.00;;;;;;5006578;28;20459;-68
2022/07/06 03:33:39;;;;;;;4.10;3.30;;;16.40;59.90;;;;;;5006561;28;20471;-68
2022/07/06 03:36:07;;;;;;;3.33;3.00;;;16.40;60.20;;;;;;5006554;28;20460;-68
2022/07/06 03:38:35;;;;;;;4.77;3.30;;;16.40;60.60;;;;;;5006607;28;20519;-68
2022/07/06 03:41:02;;;;;;;3.57;2.97;;;16.40;60.60;;;;;;5007006;28;20458;-68
2022/07/06 03:43:28;;;;;;;2.93;2.73;;;16.40;60.60;;;;;;5006368;28;20486;-67
2022/07/06 03:45:55;;;;;;;4.33;3.30;;;16.40;60.70;;;;;;5007251;28;20461;-68
2022/07/06 03:48:22;;;;;;;3.07;2.87;;;16.40;60.60;;;;;;5005937;28;20444;-68
2022/07/06 03:50:49;;;;;;;3.40;3.00;;;16.40;60.60;;;;;;5006026;28;20452;-68
2022/07/06 03:53:16;;;;;;;3.20;3.00;;;16.40;60.40;;;;;;5006721;28;20459;-68
2022/07/06 03:56:27;;;;;;;4.57;3.23;;;16.40;60.30;;;;;;5006575;28;20981;-68
2022/07/06 03:58:31;;;;;;;2.70;2.50;;;16.40;60.30;;;;;;5006319;28;20476;-68
2022/07/06 04:00:57;;;;;;;4.50;3.53;;;16.40;60.30;;;;;;5005504;28;20978;-68
2022/07/06 04:03:24;;;;;;;5.53;3.37;;;16.50;60.50;;;;;;5005451;28;20454;-68
2022/07/06 04:05:51;;;;;;;4.13;3.43;;;16.50;60.90;;;;;;5005070;28;20456;-68
2022/07/06 04:08:18;;;;;;;3.70;2.93;;;16.50;61.10;;;;;;5005375;28;20444;-68
2022/07/06 04:10:46;;;;;;;3.90;3.50;;;16.50;61.10;;;;;;5006254;28;20466;-68
2022/07/06 04:13:13;;;;;;;9.07;3.67;;;16.40;61.30;;;;;;4998903;28;20471;-69
2022/07/06 04:15:40;;;;;;;5.33;4.30;;;16.30;61.80;;;;;;4997366;28;20459;-68
2022/07/06 04:18:07;;;;;;;5.03;3.40;;;16.20;62.60;;;;;;4985793;28;20514;-68
2022/07/06 04:20:34;;;;;;;5.00;3.70;;;16.20;63.50;;;;;;5004605;28;20449;-68
2022/07/06 04:23:01;;;;;;;4.30;3.73;;;16.20;64.00;;;;;;5005557;28;20467;-68
2022/07/06 04:25:28;;;;;;;3.60;3.10;;;16.10;64.50;;;;;;5005225;28;20472;-68
2022/07/06 04:27:56;;;;;;;7.47;3.57;;;16.00;65.10;;;;;;5005901;28;20456;-68
2022/07/06 04:30:23;;;;;;;4.93;3.87;;;16.00;65.50;;;;;;5005373;28;20444;-68
2022/07/06 04:32:50;;;;;;;5.73;3.43;;;16.00;65.80;;;;;;5005555;28;20441;-68
2022/07/06 04:35:17;;;;;;;6.30;4.30;;;16.00;66.20;;;;;;5005790;28;20468;-68
2022/07/06 04:37:45;;;;;;;4.90;3.67;;;16.00;66.70;;;;;;5005317;28;20844;-68
2022/07/06 04:40:12;;;;;;;4.30;3.90;;;15.90;66.90;;;;;;5005312;28;20484;-68
2022/07/06 04:42:39;;;;;;;6.97;4.07;;;15.90;67.40;;;;;;5005612;28;20460;-68
2022/07/06 04:45:09;;;;;;;7.83;3.63;;;15.90;68.00;;;;;;5005200;28;20480;-68
2022/07/06 04:47:37;;;;;;;5.63;4.13;;;15.80;68.30;;;;;;5000880;28;20460;-68
2022/07/06 04:50:05;;;;;;;4.90;4.30;;;15.80;68.60;;;;;;4999497;28;20508;-68
2022/07/06 04:52:32;;;;;;;6.03;4.47;;;15.80;69.10;;;;;;5003440;28;20456;-68
2022/07/06 04:54:59;;;;;;;4.60;4.23;;;15.80;69.50;;;;;;5003813;28;20926;-68
2022/07/06 04:57:25;;;;;;;4.13;3.80;;;15.70;69.60;;;;;;5004543;28;20965;-69
2022/07/06 04:59:52;;;;;;;4.03;3.73;;;15.80;70.10;;;;;;5005335;28;20538;-68
2022/07/06 05:02:20;;;;;;;4.10;3.47;;;15.70;70.50;;;;;;5005964;28;20462;-68
2022/07/06 05:04:47;;;;;;;8.00;4.30;;;15.70;71.10;;;;;;5005300;28;20982;-68
2022/07/06 05:07:14;;;;;;;5.57;4.10;;;15.60;71.50;;;;;;5006085;28;20459;-68
2022/07/06 05:09:41;;;;;;;7.87;4.23;;;15.50;72.20;;;;;;5005614;28;20939;-68
2022/07/06 05:12:09;;;;;;;4.30;3.90;;;15.40;72.80;;;;;;5006133;28;20448;-68
2022/07/06 05:14:36;;;;;;;4.17;3.73;;;15.40;72.90;;;;;;5005989;28;20547;-68
2022/07/06 05:17:04;;;;;;;8.03;4.47;;;15.40;73.40;;;;;;5005761;28;20483;-68
2022/07/06 05:19:32;;;;;;;8.70;4.23;;;15.40;73.90;;;;;;5008813;28;20487;-68
2022/07/06 05:21:58;;;;;;;5.70;4.80;;;15.40;75.00;;;;;;5009751;28;20463;-68
2022/07/06 05:24:25;;;;;;;8.27;4.77;;;15.40;74.80;;;;;;5009201;28;20468;-68
2022/07/06 05:26:52;;;;;;;4.27;3.87;;;15.50;75.20;;;;;;5008636;28;20450;-68
2022/07/06 05:29:19;;;;;;;5.17;4.13;;;15.50;74.90;;;;;;5008729;28;20451;-68
2022/07/06 05:31:45;;;;;;;5.20;4.60;;;15.60;75.20;;;;;;5008918;28;20448;-68
2022/07/06 05:34:12;;;;;;;5.13;4.43;;;15.70;75.30;;;;;;5008696;28;20468;-68
2022/07/06 05:36:40;;;;;;;4.50;4.10;;;15.70;75.10;;;;;;5007434;28;20459;-68
2022/07/06 05:39:07;;;;;;;7.03;4.30;;;15.70;75.80;;;;;;5008393;28;20484;-68
2022/07/06 05:41:34;;;;;;;8.63;4.83;;;15.80;76.10;;;;;;5007485;28;20445;-68
2022/07/06 05:44:00;;;;;;;4.43;4.03;;;15.80;75.60;;;;;;5007802;28;20494;-68
2022/07/06 05:46:28;;;;;;;4.50;4.10;;;15.80;76.70;;;;;;5008418;28;20452;-68
2022/07/06 05:51:40;;;;;;;6.57;4.20;;;16.00;77.30;;;;;;5008089;28;20429;-68
2022/07/06 05:54:07;;;;;;;6.40;3.70;;;16.10;78.00;;;;;;5008095;28;21003;-68
2022/07/06 05:56:33;;;;;;;3.87;3.20;;;16.20;78.90;;;;;;5007484;28;20444;-69
2022/07/06 05:59:00;;;;;;;4.00;3.43;;;16.20;79.00;;;;;;5007289;28;20487;-68
2022/07/06 06:01:27;;;;;;;3.43;2.60;;;16.20;77.20;;;;;;5007295;28;20447;-68
2022/07/06 06:03:54;;;;;;;3.77;3.47;;;16.20;77.00;;;;;;5007126;28;20472;-68
2022/07/06 06:06:21;;;;;;;7.07;3.50;;;16.30;77.80;;;;;;5007996;28;20467;-68
2022/07/06 06:08:49;;;;;;;2.60;2.40;;;16.30;77.60;;;;;;5007645;28;20456;-69
2022/07/06 06:11:15;;;;;;;4.03;3.00;;;16.30;77.70;;;;;;5007937;28;20452;-68
2022/07/06 06:13:42;;;;;;;5.10;2.43;;;16.40;78.10;;;;;;5007658;28;20524;-69
2022/07/06 06:16:09;;;;;;;4.90;2.70;;;16.50;77.50;;;;;;5007238;28;20516;-68
2022/07/06 06:18:36;;;;;;;5.70;2.60;;;16.60;77.20;;;;;;5007800;28;20448;-69
2022/07/06 06:21:03;;;;;;;3.87;2.43;;;16.70;78.20;;;;;;5006780;28;20454;-69
2022/07/06 06:23:29;;;;;;;5.53;2.23;;;16.90;76.90;;;;;;5004699;28;20480;-69
2022/07/06 06:25:58;;;;;;;5.07;1.77;;;16.90;76.60;;;;;;5007450;28;20962;-68
2022/07/06 06:28:24;;;;;;;7.53;2.50;;;17.10;76.00;;;;;;5007399;28;20478;-68
2022/07/06 06:30:51;;;;;;;4.10;1.70;;;17.30;75.90;;;;;;5007930;28;20455;-68
2022/07/06 06:33:20;;;;;;;6.83;2.30;;;17.40;73.50;;;;;;5007460;28;20535;-68
2022/07/06 06:35:48;;;;;;;4.00;1.57;;;17.40;72.10;;;;;;5006475;28;20448;-69
2022/07/06 06:38:16;;;;;;;3.90;1.73;;;17.40;73.10;;;;;;5005967;28;20859;-69
2022/07/06 06:40:43;;;;;;;4.20;2.17;;;17.40;72.60;;;;;;5005998;28;20492;-69
2022/07/06 06:43:11;;;;;;;3.73;1.80;;;17.50;73.50;;;;;;5006927;28;20459;-69
2022/07/06 06:45:38;;;;;;;6.20;1.90;;;17.50;73.20;;;;;;5007027;28;20463;-68
2022/07/06 06:48:05;;;;;;;4.03;1.90;;;17.50;73.80;;;;;;5008575;28;20458;-68
2022/07/06 06:50:32;;;;;;;5.30;1.80;;;17.70;74.00;;;;;;5007893;28;20436;-69
2022/07/06 06:52:59;;;;;;;4.33;1.77;;;17.90;74.30;;;;;;5008996;28;20451;-68
2022/07/06 06:55:26;;;;;;;6.33;1.67;;;18.10;73.50;;;;;;5008249;28;20470;-69
2022/07/06 06:57:53;;;;;;;2.17;1.20;;;18.40;73.00;;;;;;5008535;28;20452;-69
2022/07/06 07:00:21;;;;;;;3.43;1.37;;;18.70;72.30;;;;;;5008680;28;20495;-69
2022/07/06 07:02:48;;;;;;;2.47;1.40;;;18.80;68.70;;;;;;5006354;28;20453;-69
2022/07/06 07:05:15;;;;;;;5.87;1.03;;;19.00;69.10;;;;;;5010473;28;20472;-68
2022/07/06 07:07:42;;;;;;;4.23;1.30;;;19.10;68.60;;;;;;5008466;28;20507;-68
2022/07/06 07:10:10;;;;;;;2.70;0.93;;;19.20;67.20;;;;;;5006279;28;20455;-69
2022/07/06 07:12:42;;;;;;;1.90;0.80;;;19.30;65.70;;;;;;5004215;28;20455;-69
2022/07/06 07:15:10;;;;;;;4.60;1.03;;;19.40;65.20;;;;;;5007008;28;20464;-68
2022/07/06 07:17:38;;;;;;;5.40;1.17;;;19.50;64.90;;;;;;5006374;28;20452;-68
2022/07/06 07:20:06;;;;;;;3.93;1.37;;;19.60;64.70;;;;;;5006731;28;20511;-69
2022/07/06 07:22:33;;;;;;;3.03;1.23;;;19.70;64.40;;;;;;5006950;28;20526;-69
2022/07/06 07:25:00;;;;;;;3.00;1.60;;;19.90;62.00;;;;;;5006239;28;20987;-68
2022/07/06 07:27:27;;;;;;;2.40;1.50;;;20.00;62.60;;;;;;5006385;28;20820;-69
2022/07/06 07:29:54;;;;;;;4.43;1.23;;;20.20;62.80;;;;;;5005991;28;20452;-69
2022/07/06 07:32:21;;;;;;;2.30;1.10;;;20.50;61.30;;;;;;5003402;28;20452;-68
2022/07/06 07:34:49;;;;;;;2.60;1.40;;;20.60;60.60;;;;;;4999997;28;20480;-69
2022/07/06 07:37:16;;;;;;;1.60;0.80;;;20.80;60.70;;;;;;5004358;28;20462;-69
2022/07/06 07:39:43;;;;;;;3.63;1.10;;;20.80;58.60;;;;;;5004851;28;20488;-69
2022/07/06 07:42:10;;;;;;;3.87;1.33;;;20.80;58.50;;;;;;5003576;28;20448;-68
2022/07/06 07:44:38;;;;;;;4.43;1.30;;;20.60;57.60;;;;;;5004787;28;20492;-69
2022/07/06 07:47:05;;;;;;;2.50;1.07;;;20.50;57.90;;;;;;5001003;28;20452;-69
2022/07/06 07:49:33;;;;;;;3.20;0.90;;;20.50;58.00;;;;;;4999239;28;20452;-69
2022/07/06 07:52:01;;;;;;;4.00;0.90;;;20.40;58.10;;;;;;5000307;28;20459;-69
2022/07/06 07:54:27;;;;;;;1.00;0.80;;;20.40;58.50;;;;;;5005643;28;20468;-69
2022/07/06 07:56:55;;;;;;;6.03;1.47;;;20.30;58.50;;;;;;5004834;28;20458;-69
2022/07/06 07:59:22;;;;;;;3.23;0.80;;;20.10;58.00;;;;;;5003792;28;20448;-69
2022/07/06 08:01:48;;;;;;;2.17;0.90;;;20.00;58.10;;;;;;4999156;28;20457;-69
2022/07/06 08:04:15;;;;;;;7.70;0.90;;;19.80;58.10;;;;;;5000461;28;20479;-69
2022/07/06 08:06:42;;;;;;;6.30;1.33;;;19.70;59.00;;;;;;5002576;28;20456;-69
2022/07/06 08:09:10;;;;;;;5.10;1.00;;;19.70;59.70;;;;;;5002563;28;20491;-69
2022/07/06 08:11:37;;;;;;;11.53;1.57;;;19.50;59.50;;;;;;5001682;28;20842;-68
2022/07/06 08:14:04;;;;;;;5.23;0.90;;;19.40;59.80;;;;;;5002435;28;20480;-69
2022/07/06 08:16:31;;;;;;;5.70;1.13;;;19.30;60.40;;;;;;5000030;28;20448;-69
2022/07/06 08:18:58;;;;;;;3.90;0.97;;;19.30;60.90;;;;;;4998439;28;20463;-69
2022/07/06 08:21:25;;;;;;;4.83;0.70;;;19.10;61.40;;;;;;5000145;28;20556;-69
2022/07/06 08:23:52;;;;;;;4.10;0.80;;;19.10;61.80;;;;;;5001839;28;20471;-69
2022/07/06 08:26:21;;;;;;;4.57;0.80;;;19.00;62.20;;;;;;5002889;28;20815;-69
2022/07/06 08:28:48;;;;;;;1.43;0.77;;;19.00;62.20;;;;;;5002945;28;20439;-69
2022/07/06 08:31:15;;;;;;;6.07;1.13;;;19.00;63.00;;;;;;5002437;28;20638;-69
2022/07/06 08:33:41;;;;;;;4.53;0.90;;;19.10;62.90;;;;;;5003002;28;20479;-69
2022/07/06 08:36:08;;;;;;;2.47;0.90;;;19.10;63.40;;;;;;5002434;28;20451;-69
2022/07/06 08:38:35;;;;;;;2.10;0.93;;;19.20;62.30;;;;;;5002828;28;20444;-69
2022/07/06 08:41:03;;;;;;;3.07;1.17;;;19.30;62.60;;;;;;5000554;28;20544;-69
2022/07/06 08:43:31;;;;;;;3.00;0.80;;;19.40;61.90;;;;;;5001867;28;20552;-69
2022/07/06 08:45:59;;;;;;;1.60;0.80;;;19.40;60.30;;;;;;5002819;28;20447;-69
2022/07/06 08:48:28;;;;;;;3.00;0.80;;;19.60;60.40;;;;;;5002513;28;20451;-69
2022/07/06 08:50:56;;;;;;;2.03;1.00;;;19.80;61.00;;;;;;5002685;28;20444;-69
2022/07/06 08:53:23;;;;;;;1.13;1.00;;;20.10;61.20;;;;;;5005316;28;21031;-69
2022/07/06 08:55:51;;;;;;;6.80;1.00;;;20.30;60.20;;;;;;5005928;28;20456;-70
2022/07/06 08:58:18;;;;;;;2.57;0.70;;;20.60;59.10;;;;;;5005694;28;20460;-70
2022/07/06 09:00:46;;;;;;;4.13;0.80;;;20.90;58.00;;;;;;5006294;28;20483;-70
2022/07/06 09:03:13;;;;;;;1.90;0.63;;;21.00;56.90;;;;;;5005925;28;20978;-69
2022/07/06 09:05:41;;;;;;;2.47;0.67;;;21.30;56.70;;;;;;5006051;28;20448;-70
2022/07/06 09:08:08;;;;;;;3.60;1.03;;;21.50;56.90;;;;;;5006427;28;20458;-70
2022/07/06 09:10:34;;;;;;;1.80;0.67;;;21.80;55.60;;;;;;5007121;28;20439;-69
2022/07/06 09:13:05;;;;;;;4.83;1.20;;;22.10;55.30;;;;;;5006338;28;20456;-70
2022/07/06 09:15:32;;;;;;;3.13;0.90;;;22.30;54.10;;;;;;5005543;28;20432;-70
2022/07/06 09:18:01;;;;;;;4.10;1.40;;;22.40;52.50;;;;;;5006198;28;20452;-70
2022/07/06 09:20:28;;;;;;;3.63;0.93;;;22.60;52.70;;;;;;5006902;28;20483;-70
2022/07/06 09:23:00;;;;;;;2.73;0.90;;;22.80;51.10;;;;;;5006221;28;20526;-70
2022/07/06 09:25:27;;;;;;;3.70;1.10;;;23.20;51.60;;;;;;5006244;28;20468;-70
2022/07/06 09:27:55;;;;;;;2.00;1.07;;;23.60;52.90;;;;;;5006025;28;20455;-70
2022/07/06 09:30:23;;;;;;;0.87;0.70;;;23.90;49.20;;;;;;5005344;28;20455;-70
2022/07/06 09:32:52;;;;;;;2.03;0.67;;;24.20;49.30;;;;;;5006126;28;20524;-69
2022/07/06 09:35:25;;;;;;;3.83;1.00;;;24.70;48.70;;;;;;5004311;28;20551;-70
2022/07/06 09:38:03;;;;;;;1.87;0.97;;;25.30;47.00;;;;;;5004896;28;20464;-70
2022/07/06 09:40:32;;;;;;;3.00;1.00;;;25.70;44.50;;;;;;5003530;28;20472;-70
2022/07/06 09:43:13;;;;;;;2.13;0.90;;;25.90;41.90;;;;;;5004137;28;20951;-70
2022/07/06 09:45:41;;;;;;;1.13;0.80;;;26.10;43.00;;;;;;5003553;28;20467;-70
2022/07/06 09:48:10;;;;;;;1.60;0.77;;;26.30;40.60;;;;;;5003447;28;20452;-70
2022/07/06 09:50:43;;;;;;;4.90;0.93;;;26.60;41.30;;;;;;5004389;28;20440;-70
2022/07/06 09:53:10;;;;;;;2.33;0.90;;;26.80;38.20;;;;;;5004480;28;20433;-70
2022/07/06 09:55:37;;;;;;;1.43;1.13;;;26.70;37.70;;;;;;5003316;28;20437;-70
2022/07/06 09:58:04;;;;;;;3.47;1.37;;;26.60;37.80;;;;;;5003295;28;20455;-70
2022/07/06 10:00:32;;;;;;;0.93;0.77;;;26.40;37.30;;;;;;5002561;28;20492;-70
2022/07/06 10:03:00;;;;;;;3.37;0.73;;;26.30;36.70;;;;;;5003565;28;20448;-70
2022/07/06 10:05:29;;;;;;;4.87;1.10;;;26.40;37.70;;;;;;5002835;28;20475;-70
2022/07/06 10:07:59;;;;;;;2.03;1.00;;;26.60;37.80;;;;;;5003543;28;20519;-70
2022/07/06 10:10:27;;;;;;;1.43;0.80;;;26.80;38.00;;;;;;5003873;28;20429;-70
2022/07/06 10:12:56;;;;;;;4.57;1.17;;;27.00;38.80;;;;;;5004052;28;20452;-70
2022/07/06 10:15:24;;;;;;;5.67;1.30;;;27.00;36.80;;;;;;5003429;28;20527;-70
2022/07/06 10:17:52;;;;;;;5.00;0.80;;;26.80;36.40;;;;;;5003897;28;20452;-70
2022/07/06 10:20:19;;;;;;;1.00;0.70;;;26.80;37.30;;;;;;5003751;28;20839;-70
2022/07/06 10:22:47;;;;;;;2.40;0.70;;;26.90;36.80;;;;;;5004993;28;20460;-70
2022/07/06 10:25:17;;;;;;;2.00;0.70;;;27.30;37.10;;;;;;5004356;28;20483;-70
2022/07/06 10:27:45;;;;;;;0.73;0.60;;;27.70;34.40;;;;;;5004124;28;20476;-70
2022/07/06 10:30:13;;;;;;;1.00;0.90;;;27.80;34.30;;;;;;5004112;28;20461;-70
2022/07/06 10:32:42;;;;;;;3.83;1.00;;;28.00;35.60;;;;;;5003466;28;20440;-70
2022/07/06 10:35:09;;;;;;;4.10;1.07;;;28.00;34.60;;;;;;5003741;28;20576;-70
2022/07/06 10:37:36;;;;;;;7.23;1.30;;;28.00;33.50;;;;;;5003533;28;20464;-70
2022/07/06 10:42:51;;;;;;;1.57;0.80;;;28.20;33.50;;;;;;5003886;28;20439;-70
2022/07/06 10:45:41;;;;;;;4.00;0.90;;;28.00;32.90;;;;;;5003737;28;20480;-70
2022/07/06 10:48:18;;;;;;;3.00;0.97;;;27.90;33.50;;;;;;5003947;28;20448;-70
2022/07/06 10:50:49;;;;;;;5.30;1.20;;;27.60;34.40;;;;;;5004003;28;20448;-70
2022/07/06 10:53:17;;;;;;;1.00;0.67;;;27.30;33.90;;;;;;5004467;28;20468;-70
2022/07/06 10:55:47;;;;;;;1.53;0.70;;;27.20;34.60;;;;;;5004314;28;20448;-70
2022/07/06 10:58:16;;;;;;;2.80;0.90;;;27.10;33.80;;;;;;5005528;28;20496;-70
2022/07/06 11:00:53;;;;;;;2.07;0.90;;;27.40;36.30;;;;;;5002736;28;20491;-70
2022/07/06 11:03:33;;;;;;;2.10;0.60;;;27.90;32.30;;;;;;5003522;28;20428;-69
2022/07/06 11:06:00;;;;;;;2.13;0.90;;;28.80;32.20;;;;;;5004435;28;20487;-69
2022/07/06 11:08:43;;;;;;;1.83;0.70;;;29.90;31.90;;;;;;5002615;28;20456;-70
2022/07/06 11:11:14;;;;;;;4.13;0.73;;;30.60;29.50;;;;;;5003383;28;20433;-70
2022/07/06 11:13:49;;;;;;;2.50;0.80;;;30.70;29.40;;;;;;5004655;28;20983;-71
2022/07/06 11:16:18;;;;;;;1.53;0.50;;;30.30;28.80;;;;;;5003712;28;20436;-70
2022/07/06 11:18:48;;;;;;;2.30;0.80;;;29.80;29.80;;;;;;5002981;28;20452;-70
2022/07/06 11:21:24;;;;;;;0.93;0.70;;;29.30;31.00;;;;;;5002821;28;20476;-70
2022/07/06 11:23:51;;;;;;;3.30;1.13;;;28.90;32.40;;;;;;5001459;28;21007;-71
2022/07/06 11:26:19;;;;;;;2.10;0.73;;;28.70;32.00;;;;;;5000327;28;20460;-70
2022/07/06 11:28:49;;;;;;;2.90;0.90;;;28.60;32.70;;;;;;4999650;28;20428;-70
2022/07/06 11:31:16;;;;;;;2.20;0.90;;;28.50;32.50;;;;;;5000760;28;20445;-70
2022/07/06 11:33:47;;;;;;;2.70;1.30;;;28.30;33.00;;;;;;5002889;28;20535;-70
2022/07/06 11:36:15;;;;;;;4.30;1.17;;;28.10;33.10;;;;;;5002166;28;20437;-70
2022/07/06 11:38:42;;;;;;;1.37;0.80;;;28.20;32.60;;;;;;5002908;28;20449;-70
2022/07/06 11:41:11;;;;;;;1.67;0.50;;;28.70;32.60;;;;;;5003191;28;20498;-70
2022/07/06 11:43:42;;;;;;;2.93;0.70;;;29.50;34.10;;;;;;5003599;28;20472;-70
2022/07/06 11:46:22;;;;;;;2.10;0.63;;;30.60;29.70;;;;;;5003157;28;20451;-70
2022/07/06 11:48:49;;;;;;;1.53;0.93;;;30.70;28.50;;;;;;5003658;28;20496;-71
2022/07/06 11:51:16;;;;;;;1.87;0.73;;;30.60;28.60;;;;;;5003544;28;20453;-71
2022/07/06 11:53:45;;;;;;;3.30;0.70;;;30.50;29.30;;;;;;5000652;28;20468;-71
2022/07/06 11:56:13;;;;;;;2.00;0.60;;;30.30;29.50;;;;;;5000371;28;20488;-71
2022/07/06 11:58:42;;;;;;;2.00;0.50;;;30.00;29.60;;;;;;5000348;28;20535;-71
2022/07/06 12:01:11;;;;;;;2.43;0.67;;;29.50;30.40;;;;;;5000773;28;20487;-71
2022/07/06 12:03:38;;;;;;;2.63;0.90;;;29.00;32.00;;;;;;5000728;28;20535;-71
2022/07/06 12:06:07;;;;;;;3.30;0.60;;;28.50;31.90;;;;;;5000558;28;20452;-71
2022/07/06 12:08:42;;;;;;;1.17;0.60;;;28.10;33.80;;;;;;5001007;28;20451;-70
2022/07/06 12:11:09;;;;;;;1.47;0.63;;;28.00;33.20;;;;;;5001069;28;20424;-70
2022/07/06 12:13:40;;;;;;;1.80;0.70;;;28.10;33.80;;;;;;5001141;28;20475;-71
2022/07/06 12:16:12;;;;;;;3.80;0.90;;;28.30;34.00;;;;;;4999509;28;20532;-70
2022/07/06 12:18:40;;;;;;;1.93;0.87;;;28.40;31.00;;;;;;4999708;28;20447;-70
2022/07/06 12:21:09;;;;;;;2.17;1.07;;;28.30;31.90;;;;;;4999414;28;20492;-70
2022/07/06 12:23:40;;;;;;;0.90;0.50;;;28.20;32.10;;;;;;5002305;28;20472;-70
2022/07/06 12:26:08;;;;;;;1.23;0.80;;;28.20;32.60;;;;;;5005867;28;20444;-71
2022/07/06 12:28:34;;;;;;;4.30;1.37;;;28.20;32.50;;;;;;5004749;28;20433;-71
2022/07/06 12:31:01;;;;;;;3.07;0.60;;;28.10;32.50;;;;;;5003262;28;20433;-70
2022/07/06 12:33:31;;;;;;;2.47;0.77;;;28.20;32.70;;;;;;5003885;28;20496;-71
2022/07/06 12:35:58;;;;;;;2.73;0.70;;;28.20;32.20;;;;;;5007620;28;20436;-71
2022/07/06 12:38:26;;;;;;;1.00;0.80;;;28.30;31.80;;;;;;5005272;28;20455;-71
2022/07/06 12:40:53;;;;;;;2.03;0.70;;;28.50;31.60;;;;;;5003793;28;20527;-70
2022/07/06 12:43:39;;;;;;;1.83;0.80;;;28.40;32.00;;;;;;5005710;28;20491;-71
2022/07/06 12:46:30;;;;;;;6.67;1.37;;;28.30;32.90;;;;;;5004941;28;20460;-71
2022/07/06 12:48:59;;;;;;;1.77;0.63;;;28.50;33.50;;;;;;5003633;28;20468;-71
2022/07/06 12:51:26;;;;;;;1.00;0.53;;;28.60;32.10;;;;;;5003378;28;20478;-70
2022/07/06 12:54:12;;;;;;;1.20;0.50;;;28.90;31.20;;;;;;5002549;28;20531;-70
2022/07/06 12:57:01;;;;;;;2.47;0.60;;;29.40;29.80;;;;;;5003801;28;20436;-71
2022/07/06 12:59:28;;;;;;;0.60;0.60;;;29.80;28.70;;;;;;5004394;28;20440;-71